createdAt,value
2023-05-02T06:56:35.626Z,47.95
2023-05-02T06:59:37.793Z,48.73
2023-05-02T07:02:39.666Z,47.33
2023-05-02T07:05:41.649Z,47.70
2023-05-02T07:08:43.534Z,46.29
2023-05-02T07:11:45.535Z,45.90
2023-05-02T07:14:47.587Z,46.92
2023-05-02T07:17:49.781Z,46.87
2023-05-02T07:20:51.858Z,46.03
2023-05-02T07:23:55.652Z,46.02
2023-05-02T07:26:57.539Z,46.63
2023-05-02T07:29:59.615Z,45.24
2023-05-02T07:33:01.683Z,45.93
2023-05-02T07:36:03.775Z,44.58
2023-05-02T07:39:05.763Z,43.83
2023-05-02T07:42:07.686Z,43.98
2023-05-02T07:45:10.319Z,43.65
2023-05-02T07:48:12.328Z,41.06
2023-05-02T07:51:14.389Z,41.35
2023-05-02T07:54:16.993Z,39.61
2023-05-02T07:57:19.236Z,39.97
2023-05-02T08:00:21.308Z,40.96
2023-05-02T08:03:23.346Z,40.59
2023-05-02T08:06:25.545Z,39.21
2023-05-02T08:09:27.572Z,37.45
2023-05-02T08:12:29.458Z,35.77
2023-05-02T08:15:31.311Z,36.77
2023-05-02T08:18:33.253Z,36.16
2023-05-02T08:21:35.656Z,37.00
2023-05-02T08:24:37.533Z,35.58
2023-05-02T08:27:39.566Z,34.91
2023-05-02T08:30:41.829Z,35.66
2023-05-02T08:33:44.004Z,35.31
2023-05-02T08:36:47.441Z,34.05
2023-05-02T08:39:49.383Z,34.62
2023-05-02T08:42:52.831Z,35.42
2023-05-02T08:46:00.021Z,33.56
2023-05-02T08:49:03.119Z,33.88
2023-05-02T08:52:06.931Z,33.40
2023-05-02T08:55:09.250Z,32.28
2023-05-02T08:58:12.411Z,33.07
2023-05-02T09:01:17.878Z,33.07
2023-05-02T09:04:24.872Z,29.89
2023-05-02T09:07:27.176Z,29.77
2023-05-02T09:10:31.025Z,29.74
2023-05-02T09:13:38.846Z,28.37
2023-05-02T09:16:40.706Z,30.01
2023-05-02T09:19:42.611Z,29.62
2023-05-02T09:22:52.995Z,30.26
2023-05-02T09:25:55.000Z,30.24
2023-05-02T09:28:57.571Z,29.44
2023-05-02T09:31:59.405Z,26.90
2023-05-02T09:35:08.070Z,29.10
2023-05-02T09:38:20.657Z,27.18
2023-05-02T09:41:22.475Z,28.25
2023-05-02T09:44:36.212Z,28.71
2023-05-02T09:47:38.272Z,28.60
2023-05-02T09:50:40.178Z,27.73
2023-05-02T09:53:45.076Z,27.06
2023-05-02T09:56:57.563Z,26.81
2023-05-02T09:59:59.354Z,26.26
2023-05-02T10:03:01.445Z,24.81
2023-05-02T10:06:08.375Z,24.33
2023-05-02T10:09:12.144Z,26.79
2023-05-02T10:12:16.909Z,26.06
2023-05-02T10:15:22.950Z,25.88
2023-05-02T10:18:28.674Z,25.50
2023-05-02T10:21:32.614Z,27.23
2023-05-02T10:24:35.157Z,26.97
2023-05-02T10:27:37.981Z,26.93
2023-05-02T10:30:40.837Z,26.63
2023-05-02T10:33:42.870Z,25.68
2023-05-02T10:36:44.755Z,27.10
2023-05-02T10:39:46.638Z,26.27
2023-05-02T10:42:51.648Z,26.37
2023-05-02T10:45:54.221Z,25.68
2023-05-02T10:49:03.542Z,24.07
2023-05-02T10:52:26.591Z,25.48
2023-05-02T10:55:28.569Z,26.25
2023-05-02T10:58:30.518Z,26.43
2023-05-02T11:01:36.439Z,25.84
2023-05-02T11:05:07.187Z,24.88
2023-05-02T11:08:28.917Z,25.21
2023-05-02T11:11:42.541Z,24.48
2023-05-02T11:14:47.587Z,25.09
2023-05-02T11:18:03.192Z,24.01
2023-05-02T11:21:31.280Z,25.02
2023-05-02T11:24:42.609Z,25.06
2023-05-02T11:27:46.414Z,26.91
2023-05-02T11:30:48.938Z,25.91
2023-05-02T11:33:58.146Z,25.80
2023-05-02T11:37:00.358Z,26.61
2023-05-02T11:40:12.579Z,27.25
2023-05-02T11:43:16.874Z,25.80
2023-05-02T11:46:21.165Z,24.28
2023-05-02T11:49:23.261Z,25.41
2023-05-02T11:52:25.309Z,24.77
2023-05-02T11:55:27.476Z,24.55
2023-05-02T11:58:33.493Z,24.54
2023-05-02T12:01:35.744Z,24.41
2023-05-02T12:04:46.887Z,24.35
2023-05-02T12:07:51.694Z,24.98
2023-05-02T12:10:55.520Z,24.97
2023-05-02T12:13:57.855Z,24.95
2023-05-02T12:17:00.083Z,24.31
2023-05-02T12:20:05.232Z,25.22
2023-05-02T12:23:08.293Z,25.79
2023-05-02T12:26:30.927Z,24.36
2023-05-02T12:29:45.508Z,26.30
2023-05-02T12:32:57.779Z,24.32
2023-05-02T12:36:07.304Z,25.29
2023-05-02T12:39:09.727Z,24.41
2023-05-02T12:42:19.895Z,25.96
2023-05-02T12:45:21.845Z,25.04
2023-05-02T12:48:24.961Z,25.33
2023-05-02T12:51:28.881Z,25.42
2023-05-02T12:54:30.995Z,26.05
2023-05-02T12:57:33.051Z,25.57
2023-05-02T13:00:38.257Z,23.85
2023-05-02T13:03:40.534Z,25.51
2023-05-02T13:06:43.169Z,25.96
2023-05-02T13:09:46.323Z,26.79
2023-05-02T13:12:48.832Z,26.92
2023-05-02T13:15:50.782Z,25.82
2023-05-02T13:18:53.273Z,25.75
2023-05-02T13:21:55.161Z,26.04
2023-05-02T13:24:57.091Z,25.21
2023-05-02T13:28:00.123Z,27.23
2023-05-02T13:31:02.651Z,26.76
2023-05-02T13:34:05.390Z,27.04
2023-05-02T13:37:07.689Z,25.84
2023-05-02T13:40:09.638Z,23.99
2023-05-02T13:43:11.517Z,25.86
2023-05-02T13:46:13.566Z,25.30
2023-05-02T13:49:15.446Z,25.63
2023-05-02T13:52:17.266Z,25.69
2023-05-02T13:55:19.880Z,24.94
2023-05-02T13:58:22.012Z,25.42
2023-05-02T14:01:26.753Z,26.96
2023-05-02T14:04:28.683Z,25.36
2023-05-02T14:07:30.658Z,25.63
2023-05-02T14:10:32.615Z,24.53
2023-05-02T14:13:34.546Z,25.27
2023-05-02T14:16:37.541Z,25.90
2023-05-02T14:19:39.422Z,25.96
2023-05-02T14:22:41.707Z,25.70
2023-05-02T14:25:43.473Z,24.56
2023-05-02T14:28:45.312Z,24.96
2023-05-02T14:31:47.361Z,24.59
2023-05-02T14:34:49.239Z,25.71
2023-05-02T14:37:51.345Z,25.42
2023-05-02T14:40:53.301Z,25.51
2023-05-02T14:43:55.150Z,24.45
2023-05-02T14:46:57.253Z,23.94
2023-05-02T14:49:59.306Z,25.11
2023-05-02T14:53:01.288Z,25.44
2023-05-02T14:56:03.351Z,25.75
2023-05-02T14:59:05.236Z,25.67
2023-05-02T15:02:07.337Z,24.74
2023-05-02T15:05:12.288Z,25.16
2023-05-02T15:08:14.589Z,25.28
2023-05-02T15:11:16.712Z,25.29
2023-05-02T15:14:18.951Z,24.65
2023-05-02T15:17:21.586Z,25.29
2023-05-02T15:20:23.530Z,25.85
2023-05-02T15:23:25.593Z,26.07
2023-05-02T15:26:27.549Z,25.71
2023-05-02T15:29:29.594Z,26.36
2023-05-02T15:32:31.604Z,26.12
2023-05-02T15:35:33.718Z,26.45
2023-05-02T15:38:39.389Z,27.33
2023-05-02T15:41:42.092Z,27.44
2023-05-02T15:44:44.003Z,27.29
2023-05-02T15:47:45.991Z,27.93
2023-05-02T15:50:48.735Z,28.12
2023-05-02T15:53:52.543Z,28.71
2023-05-02T15:56:54.448Z,28.55
2023-05-02T15:59:56.372Z,28.70
2023-05-02T16:02:58.372Z,28.92
2023-05-02T16:06:01.203Z,29.58
2023-05-02T16:09:06.474Z,29.85
2023-05-02T16:12:08.606Z,29.68
2023-05-02T16:15:10.952Z,30.08
2023-05-02T16:18:12.878Z,30.45
2023-05-02T16:21:14.877Z,30.42
2023-05-02T16:24:16.746Z,30.34
2023-05-02T16:27:18.679Z,30.60
2023-05-02T16:30:20.621Z,30.98
2023-05-02T16:33:22.624Z,31.25
2023-05-02T16:36:25.252Z,31.65
2023-05-02T16:39:27.369Z,38.67
2023-05-02T16:42:29.226Z,36.46
2023-05-02T16:45:31.109Z,36.91
2023-05-02T16:48:33.853Z,36.76
2023-05-02T16:51:35.778Z,38.01
2023-05-02T16:54:37.730Z,38.99
2023-05-02T16:57:39.563Z,40.18
2023-05-02T17:00:41.500Z,41.16
2023-05-02T17:03:43.440Z,41.40
2023-05-02T17:06:45.489Z,42.82
2023-05-02T17:09:47.689Z,44.62
2023-05-02T17:12:49.952Z,45.32
2023-05-02T17:15:52.971Z,45.03
2023-05-02T17:18:54.875Z,45.78
2023-05-02T17:22:00.328Z,46.94
2023-05-02T17:25:02.242Z,46.57
2023-05-02T17:28:04.391Z,48.09
2023-05-02T17:31:06.534Z,49.17
2023-05-02T17:34:08.640Z,49.95
2023-05-02T17:37:10.900Z,49.75
2023-05-02T17:40:13.033Z,50.64
2023-05-02T17:43:14.879Z,50.82
2023-05-02T17:46:16.800Z,52.01
2023-05-02T17:49:18.926Z,52.28
2023-05-02T17:52:21.462Z,52.12
2023-05-02T17:55:23.462Z,52.91
2023-05-02T17:58:25.463Z,54.17
2023-05-02T18:01:27.384Z,55.19
2023-05-02T18:04:29.343Z,55.93
2023-05-02T18:07:31.914Z,55.18
2023-05-02T18:10:42.085Z,56.55
2023-05-02T18:13:44.777Z,56.02
2023-05-02T18:16:48.800Z,57.05
2023-05-02T18:19:50.814Z,58.15
2023-05-02T18:22:52.721Z,58.82
2023-05-02T18:25:54.630Z,58.52
2023-05-02T18:28:57.454Z,58.21
2023-05-02T18:32:00.773Z,57.95
2023-05-02T18:35:04.336Z,58.43
2023-05-02T18:38:07.078Z,58.46
2023-05-02T18:41:09.463Z,59.20
2023-05-02T18:44:12.126Z,58.65
2023-05-02T18:47:14.118Z,58.56
2023-05-02T18:50:16.768Z,58.39
2023-05-02T18:53:21.300Z,58.87
2023-05-02T18:56:23.202Z,59.42
2023-05-02T18:59:25.594Z,59.77
2023-05-02T19:02:27.636Z,60.02
2023-05-02T19:05:29.785Z,60.07
2023-05-02T19:08:31.705Z,60.28
2023-05-02T19:11:33.638Z,59.65
2023-05-02T19:14:39.757Z,58.97
2023-05-02T19:17:43.438Z,59.60
2023-05-02T19:20:45.523Z,60.68
2023-05-02T19:23:47.790Z,60.35
2023-05-02T19:26:49.697Z,61.29
2023-05-02T19:29:54.680Z,61.80
2023-05-02T19:32:56.574Z,62.57
2023-05-02T19:35:58.658Z,63.22
2023-05-02T19:39:00.606Z,63.70
2023-05-02T19:42:03.334Z,61.08
2023-05-02T19:45:05.590Z,60.02
2023-05-02T19:48:07.719Z,60.69
2023-05-02T19:51:10.053Z,61.78
2023-05-02T19:54:12.060Z,62.08
2023-05-02T19:57:13.911Z,63.15
2023-05-02T20:00:16.041Z,62.59
2023-05-02T20:03:21.069Z,63.25
2023-05-02T20:06:23.123Z,63.11
2023-05-02T20:09:25.296Z,63.09
2023-05-02T20:12:27.188Z,63.08
2023-05-02T20:15:29.579Z,63.59
2023-05-02T20:18:31.596Z,62.82
2023-05-02T20:21:33.470Z,63.40
2023-05-02T20:24:35.391Z,64.17
2023-05-02T20:27:37.457Z,64.38
2023-05-02T20:30:40.013Z,65.39
2023-05-02T20:33:45.706Z,64.86
2023-05-02T20:36:47.971Z,65.31
2023-05-02T20:39:49.863Z,65.05
2023-05-02T20:42:51.940Z,64.97
2023-05-02T20:45:53.789Z,65.68
2023-05-02T20:48:55.807Z,64.15
2023-05-02T20:51:58.212Z,65.30
2023-05-02T20:55:01.847Z,66.72
2023-05-02T20:58:03.780Z,66.69
2023-05-02T21:01:05.802Z,66.46
2023-05-02T21:04:07.715Z,67.19
2023-05-02T21:07:09.682Z,67.04
2023-05-02T21:10:11.789Z,67.05
2023-05-02T21:13:13.983Z,68.64
2023-05-02T21:16:19.844Z,67.54
2023-05-02T21:19:21.761Z,67.19
2023-05-02T21:22:23.726Z,66.75
2023-05-02T21:25:25.854Z,67.36
2023-05-02T21:28:27.940Z,68.03
2023-05-02T21:31:32.280Z,68.05
2023-05-02T21:34:34.230Z,68.41
2023-05-02T21:37:36.252Z,68.58
2023-05-02T21:40:38.680Z,69.17
2023-05-02T21:43:40.885Z,69.33
2023-05-02T21:46:42.853Z,69.22
2023-05-02T21:49:44.790Z,69.37
2023-05-02T21:52:46.895Z,69.71
2023-05-02T21:55:48.822Z,69.63
2023-05-02T21:58:51.425Z,69.17
2023-05-02T22:01:53.579Z,69.44
2023-05-02T22:04:57.838Z,69.94
2023-05-02T22:08:00.835Z,69.74
2023-05-02T22:11:07.866Z,70.05
2023-05-02T22:14:12.993Z,70.12
2023-05-02T22:17:17.450Z,69.72
2023-05-02T22:20:19.660Z,69.88
2023-05-02T22:23:21.868Z,70.21
2023-05-02T22:26:24.081Z,70.50
2023-05-02T22:29:26.353Z,70.36
2023-05-02T22:32:28.743Z,70.22
2023-05-02T22:35:30.852Z,70.32
2023-05-02T22:38:33.088Z,69.67
2023-05-02T22:41:35.910Z,69.97
2023-05-02T22:44:50.533Z,72.01
2023-05-02T22:47:56.133Z,70.96
2023-05-02T22:50:59.082Z,70.54
2023-05-02T22:54:05.257Z,70.38
2023-05-02T22:57:07.727Z,71.15
2023-05-02T23:00:11.473Z,72.35
2023-05-02T23:03:14.010Z,71.61
2023-05-02T23:06:17.621Z,71.04
2023-05-02T23:09:21.037Z,71.35
2023-05-02T23:12:24.637Z,71.16
2023-05-02T23:15:28.121Z,70.74
2023-05-02T23:18:31.551Z,71.48
2023-05-02T23:21:34.700Z,71.10
2023-05-02T23:24:38.017Z,71.31
2023-05-02T23:27:41.740Z,72.06
2023-05-02T23:30:45.582Z,72.46
2023-05-02T23:33:49.129Z,72.87
2023-05-02T23:36:53.491Z,72.94
2023-05-02T23:39:57.968Z,73.01
2023-05-02T23:43:01.291Z,72.74
2023-05-02T23:46:04.611Z,72.53
2023-05-02T23:49:08.213Z,72.74
2023-05-02T23:52:11.812Z,72.87
2023-05-02T23:55:15.360Z,73.17
2023-05-02T23:58:19.564Z,73.37
